Time;durP1;ratioP1;P1;durP2;ratioP2;P2;SDS_P1;SDS_P2;PMS_P1;PMS_P2;Temp;Humidity;BMP_temperature;BMP_pressure;BME280_temperature;BME280_humidity;BME280_pressure;Samples;Min_cycle;Max_cycle;Signal;HPM_P1;HPM_P2
2023/01/14 00:00:10;;;;;;;;;3.00;3.00;;;;;;;;4917136;28;45462;-72
2023/01/14 00:02:35;;;;;;;;;3.00;2.25;;;;;;;;4917772;28;46287;-72
2023/01/14 00:05:00;;;;;;;;;1.25;1.25;;;;;;;;4917625;28;45685;-71
2023/01/14 00:07:25;;;;;;;;;3.25;2.00;;;;;;;;4918133;28;45369;-72
2023/01/14 00:09:50;;;;;;;;;4.50;2.75;;;;;;;;4948466;28;45465;-72
2023/01/14 00:12:18;;;;;;;;;2.00;1.00;;;;;;;;4917386;28;47297;-72
2023/01/14 00:14:44;;;;;;;;;3.50;1.00;;;;;;;;4917892;28;45345;-72
2023/01/14 00:17:09;;;;;;;;;2.00;2.00;;;;;;;;4917623;28;45267;-72
2023/01/14 00:19:34;;;;;;;;;3.75;2.50;;;;;;;;4917696;28;45334;-72
2023/01/14 00:21:59;;;;;;;;;4.00;1.00;;;;;;;;4914476;28;47289;-72
2023/01/14 00:24:24;;;;;;;;;2.50;1.25;;;;;;;;4913447;28;45354;-73
2023/01/14 00:26:51;;;;;;;;;0.75;0.75;;;;;;;;4908427;28;45470;-72
2023/01/14 00:29:20;;;;;;;;;8.00;1.25;;;;;;;;4917362;28;45445;-72
2023/01/14 00:31:46;;;;;;;;;1.50;1.50;;;;;;;;4915430;28;45930;-72
2023/01/14 00:34:12;;;;;;;;;1.50;1.50;;;;;;;;4914849;28;45413;-72
2023/01/14 00:36:37;;;;;;;;;0.75;0.00;;;;;;;;4915996;28;45430;-72
2023/01/14 00:39:03;;;;;;;;;3.00;0.50;;;;;;;;4916093;28;45491;-73
2023/01/14 00:41:28;;;;;;;;;1.50;1.50;;;;;;;;4912551;28;47695;-73
2023/01/14 00:43:54;;;;;;;;;1.75;1.00;;;;;;;;4917669;28;45390;-73
2023/01/14 00:46:27;;;;;;;;;3.25;3.25;;;;;;;;4917615;28;45424;-73
2023/01/14 00:48:53;;;;;;;;;0.00;0.00;;;;;;;;4915283;28;45346;-72
2023/01/14 00:51:18;;;;;;;;;3.00;3.00;;;;;;;;4915632;28;46029;-73
2023/01/14 00:53:45;;;;;;;;;1.00;1.00;;;;;;;;4917026;28;45456;-73
2023/01/14 00:56:11;;;;;;;;;0.00;0.00;;;;;;;;4917512;28;45380;-72
2023/01/14 00:58:36;;;;;;;;;2.00;0.00;;;;;;;;4920971;28;45247;-73
2023/01/14 01:01:01;;;;;;;;;0.00;0.00;;;;;;;;4926293;28;47467;-73
2023/01/14 01:03:27;;;;;;;;;1.25;1.25;;;;;;;;4952768;28;45889;-73
2023/01/14 01:05:52;;;;;;;;;1.00;1.00;;;;;;;;4916802;28;45441;-73
2023/01/14 01:08:18;;;;;;;;;1.50;0.50;;;;;;;;4929834;28;45376;-72
2023/01/14 01:10:47;;;;;;;;;0.00;0.00;;;;;;;;4939704;28;47215;-72
2023/01/14 01:13:12;;;;;;;;;0.00;0.00;;;;;;;;4939312;28;45386;-72
2023/01/14 01:15:38;;;;;;;;;2.25;0.75;;;;;;;;4938851;28;45473;-72
2023/01/14 01:18:05;;;;;;;;;1.00;1.00;;;;;;;;4938626;28;45490;-73
2023/01/14 01:20:31;;;;;;;;;3.00;1.00;;;;;;;;4938661;28;45520;-72
2023/01/14 01:22:56;;;;;;;;;2.00;1.25;;;;;;;;4934032;28;45373;-73
2023/01/14 01:25:21;;;;;;;;;3.00;2.00;;;;;;;;4920056;28;45461;-72
2023/01/14 01:27:47;;;;;;;;;3.00;2.00;;;;;;;;4920680;28;45347;-73
2023/01/14 01:30:12;;;;;;;;;2.25;2.25;;;;;;;;4920346;28;46169;-72
2023/01/14 01:32:37;;;;;;;;;2.00;2.00;;;;;;;;4920948;28;45434;-72
2023/01/14 01:35:03;;;;;;;;;1.00;1.00;;;;;;;;4920485;28;45391;-73
2023/01/14 01:37:28;;;;;;;;;1.50;1.25;;;;;;;;4920393;28;45330;-72
2023/01/14 01:39:53;;;;;;;;;1.00;1.00;;;;;;;;4920346;28;45379;-72
2023/01/14 01:42:21;;;;;;;;;1.75;1.00;;;;;;;;4919325;28;45457;-73
2023/01/14 01:44:46;;;;;;;;;2.25;1.00;;;;;;;;4920889;28;45489;-72
2023/01/14 01:47:12;;;;;;;;;1.00;0.75;;;;;;;;4921231;28;45299;-72
2023/01/14 01:49:37;;;;;;;;;0.00;0.00;;;;;;;;4920243;28;45963;-72
2023/01/14 01:52:08;;;;;;;;;1.00;1.00;;;;;;;;4920381;28;45310;-72
2023/01/14 01:54:39;;;;;;;;;1.00;1.00;;;;;;;;4920211;28;45288;-73
2023/01/14 01:57:06;;;;;;;;;0.25;0.25;;;;;;;;4932267;28;45367;-72
2023/01/14 01:59:34;;;;;;;;;0.00;0.00;;;;;;;;4938898;28;46140;-73
2023/01/14 02:01:59;;;;;;;;;1.00;1.00;;;;;;;;4938700;28;45377;-73
2023/01/14 02:04:24;;;;;;;;;0.00;0.00;;;;;;;;4938755;28;45436;-73
2023/01/14 02:06:50;;;;;;;;;0.50;0.50;;;;;;;;4939016;28;45345;-73
2023/01/14 02:09:16;;;;;;;;;0.00;0.00;;;;;;;;4938184;28;45383;-73
2023/01/14 02:11:58;;;;;;;;;0.00;0.00;;;;;;;;4938753;28;45297;-72
2023/01/14 02:14:39;;;;;;;;;0.00;0.00;;;;;;;;4939126;28;45378;-72
2023/01/14 02:17:07;;;;;;;;;0.00;0.00;;;;;;;;4938688;28;45378;-72
2023/01/14 02:19:38;;;;;;;;;0.00;0.00;;;;;;;;4938509;28;46285;-73
2023/01/14 02:22:22;;;;;;;;;5.00;1.00;;;;;;;;4938499;28;45457;-73
2023/01/14 02:24:56;;;;;;;;;0.00;0.00;;;;;;;;4900515;29;45391;-72
2023/01/14 02:27:21;;;;;;;;;1.00;1.00;;;;;;;;4900554;29;45454;-72
2023/01/14 02:30:04;;;;;;;;;0.25;0.25;;;;;;;;4900229;28;45578;-72
2023/01/14 02:32:36;;;;;;;;;1.00;0.00;;;;;;;;4900580;28;45414;-73
2023/01/14 02:35:01;;;;;;;;;1.00;0.00;;;;;;;;4900164;29;45317;-72
2023/01/14 02:37:28;;;;;;;;;0.75;0.00;;;;;;;;4930804;28;45393;-72
2023/01/14 02:40:12;;;;;;;;;0.75;0.00;;;;;;;;4900187;28;45682;-72
2023/01/14 02:45:45;;;;;;;;;0.00;0.00;;;;;;;;4899751;29;45465;-73
2023/01/14 02:48:12;;;;;;;;;0.00;0.00;;;;;;;;4899651;28;45483;-74
2023/01/14 02:50:37;;;;;;;;;1.00;0.00;;;;;;;;4900000;28;45628;-74
2023/01/14 02:53:14;;;;;;;;;0.00;0.00;;;;;;;;4899874;28;45387;-74
2023/01/14 02:55:40;;;;;;;;;0.00;0.00;;;;;;;;4899836;28;45388;-74
2023/01/14 02:58:08;;;;;;;;;0.00;0.00;;;;;;;;4900430;29;45469;-74
2023/01/14 03:00:49;;;;;;;;;1.00;1.00;;;;;;;;4900546;29;45347;-74
2023/01/14 03:03:17;;;;;;;;;0.00;0.00;;;;;;;;4900019;29;45422;-74
2023/01/14 03:05:48;;;;;;;;;0.00;0.00;;;;;;;;4899569;29;45497;-74
2023/01/14 03:08:19;;;;;;;;;0.00;0.00;;;;;;;;4900118;29;45578;-74
2023/01/14 03:11:00;;;;;;;;;2.75;0.00;;;;;;;;4899523;28;46551;-74
2023/01/14 03:13:37;;;;;;;;;1.00;0.00;;;;;;;;4930423;28;45590;-73
2023/01/14 03:16:12;;;;;;;;;0.75;0.75;;;;;;;;4899608;29;45438;-73
2023/01/14 03:18:47;;;;;;;;;0.00;0.00;;;;;;;;4899946;28;45298;-73
2023/01/14 03:21:18;;;;;;;;;1.00;0.00;;;;;;;;4898313;28;45566;-73
2023/01/14 03:23:47;;;;;;;;;0.00;0.00;;;;;;;;4910739;28;45386;-73
2023/01/14 03:26:14;;;;;;;;;0.50;0.25;;;;;;;;4918704;28;45324;-73
2023/01/14 03:28:43;;;;;;;;;2.00;0.00;;;;;;;;4918870;28;45406;-73
2023/01/14 03:31:13;;;;;;;;;0.00;0.00;;;;;;;;4918588;28;47509;-73
2023/01/14 03:33:45;;;;;;;;;0.50;0.00;;;;;;;;4918891;28;45539;-73
2023/01/14 03:36:12;;;;;;;;;1.50;0.50;;;;;;;;4918590;28;45308;-73
2023/01/14 03:38:37;;;;;;;;;0.75;0.75;;;;;;;;4918047;28;45450;-73
2023/01/14 03:41:05;;;;;;;;;1.00;0.00;;;;;;;;4918255;28;46168;-73
2023/01/14 03:43:51;;;;;;;;;0.00;0.00;;;;;;;;4918163;28;45488;-73
2023/01/14 03:46:17;;;;;;;;;1.00;0.00;;;;;;;;4918229;28;45352;-73
2023/01/14 03:48:42;;;;;;;;;3.00;1.00;;;;;;;;4920593;28;45365;-73
2023/01/14 03:51:08;;;;;;;;;2.00;1.00;;;;;;;;4924919;28;47188;-73
2023/01/14 03:54:00;;;;;;;;;2.50;0.00;;;;;;;;4926288;28;45396;-73
2023/01/14 03:56:32;;;;;;;;;0.00;0.00;;;;;;;;4921255;28;45469;-73
2023/01/14 03:59:02;;;;;;;;;0.00;0.00;;;;;;;;4922794;28;45501;-73
2023/01/14 04:01:31;;;;;;;;;0.00;0.00;;;;;;;;4925342;28;45386;-72
2023/01/14 04:03:57;;;;;;;;;1.50;1.00;;;;;;;;4926638;28;45425;-73
2023/01/14 04:06:22;;;;;;;;;0.00;0.00;;;;;;;;4926399;28;45661;-72
2023/01/14 04:08:47;;;;;;;;;1.50;0.50;;;;;;;;4925407;28;45755;-73
2023/01/14 04:11:12;;;;;;;;;1.00;1.00;;;;;;;;4924557;28;46125;-73
2023/01/14 04:16:21;;;;;;;;;0.75;0.75;;;;;;;;4929308;28;45428;-72
2023/01/14 04:18:47;;;;;;;;;2.50;0.00;;;;;;;;4930286;28;45389;-72
2023/01/14 04:21:12;;;;;;;;;2.00;1.00;;;;;;;;4922542;28;47340;-72
2023/01/14 04:23:37;;;;;;;;;1.00;1.00;;;;;;;;4926195;28;45389;-71
2023/01/14 04:26:02;;;;;;;;;1.75;0.50;;;;;;;;4925093;28;45373;-72
2023/01/14 04:28:27;;;;;;;;;3.75;2.00;;;;;;;;4959046;28;45472;-72
2023/01/14 04:30:53;;;;;;;;;0.75;0.75;;;;;;;;4925620;28;46395;-72
2023/01/14 04:33:19;;;;;;;;;1.50;0.75;;;;;;;;4949524;28;45621;-72
2023/01/14 04:35:45;;;;;;;;;1.75;1.75;;;;;;;;4927331;28;46447;-73
2023/01/14 04:38:10;;;;;;;;;1.50;0.00;;;;;;;;4931287;28;45333;-72
2023/01/14 04:40:35;;;;;;;;;2.50;1.25;;;;;;;;4935805;28;45544;-72
2023/01/14 04:43:01;;;;;;;;;0.75;0.75;;;;;;;;4934473;28;45498;-72
2023/01/14 04:45:26;;;;;;;;;2.00;1.75;;;;;;;;4936033;28;45424;-72
2023/01/14 04:47:51;;;;;;;;;3.50;2.00;;;;;;;;4934917;28;45373;-72
2023/01/14 04:50:32;;;;;;;;;3.00;2.00;;;;;;;;4936707;28;45433;-72
2023/01/14 04:53:08;;;;;;;;;2.50;1.00;;;;;;;;4936947;28;45346;-72
2023/01/14 04:55:34;;;;;;;;;3.25;2.00;;;;;;;;4935329;28;45469;-72
2023/01/14 04:57:59;;;;;;;;;2.00;2.00;;;;;;;;4936457;28;45375;-72
2023/01/14 05:00:25;;;;;;;;;4.50;1.00;;;;;;;;4936741;28;46495;-72
2023/01/14 05:02:50;;;;;;;;;3.00;2.00;;;;;;;;4937552;28;45413;-72
2023/01/14 05:05:15;;;;;;;;;4.75;2.00;;;;;;;;4937227;28;45394;-72
2023/01/14 05:07:40;;;;;;;;;3.00;1.25;;;;;;;;4936430;28;45341;-72
2023/01/14 05:10:06;;;;;;;;;1.50;1.00;;;;;;;;4936297;28;45984;-72
2023/01/14 05:12:31;;;;;;;;;5.25;1.25;;;;;;;;4936238;28;45442;-72
2023/01/14 05:14:56;;;;;;;;;3.00;1.00;;;;;;;;4936542;28;45457;-72
2023/01/14 05:17:21;;;;;;;;;1.00;1.00;;;;;;;;4936641;28;45251;-72
2023/01/14 05:19:47;;;;;;;;;4.50;2.25;;;;;;;;4935043;28;48245;-72
2023/01/14 05:22:12;;;;;;;;;0.50;0.50;;;;;;;;4936462;28;45503;-72
2023/01/14 05:24:37;;;;;;;;;3.50;2.00;;;;;;;;4917714;28;45353;-72
2023/01/14 05:27:02;;;;;;;;;2.00;1.75;;;;;;;;4915748;28;45381;-72
2023/01/14 05:29:27;;;;;;;;;1.25;1.00;;;;;;;;4917193;28;45382;-72
2023/01/14 05:31:53;;;;;;;;;2.50;0.75;;;;;;;;4917284;28;45304;-72
2023/01/14 05:34:18;;;;;;;;;1.50;0.00;;;;;;;;4917395;28;45354;-72
2023/01/14 05:36:43;;;;;;;;;3.00;2.00;;;;;;;;4917036;28;45469;-73
2023/01/14 05:39:09;;;;;;;;;1.00;1.00;;;;;;;;4917135;28;46209;-72
2023/01/14 05:41:34;;;;;;;;;3.00;2.00;;;;;;;;4947694;28;45354;-72
2023/01/14 05:46:45;;;;;;;;;0.00;0.00;;;;;;;;4920423;28;45397;-72
2023/01/14 05:49:10;;;;;;;;;1.00;1.00;;;;;;;;4920263;28;47104;-72
2023/01/14 05:51:35;;;;;;;;;0.00;0.00;;;;;;;;4919590;28;45395;-72
2023/01/14 05:54:00;;;;;;;;;4.75;2.00;;;;;;;;4920512;28;45338;-72
2023/01/14 05:56:25;;;;;;;;;1.00;1.00;;;;;;;;4919881;28;45386;-72
2023/01/14 05:58:51;;;;;;;;;1.00;0.75;;;;;;;;4920236;28;45469;-73
2023/01/14 06:06:47;;;;;;;;;4.00;1.75;;;;;;;;4920095;28;45480;-72
2023/01/14 06:09:14;;;;;;;;;1.00;1.00;;;;;;;;4920043;28;46252;-72
2023/01/14 06:12:36;;;;;;;;;1.00;0.00;;;;;;;;4919674;28;45420;-73
2023/01/14 06:14:31;;;;;;;;;3.00;1.00;;;;;;;;4914910;28;45243;-73
2023/01/14 06:16:57;;;;;;;;;1.00;1.00;;;;;;;;4920143;28;45347;-73
2023/01/14 06:19:23;;;;;;;;;0.00;0.00;;;;;;;;4919607;28;47404;-73
2023/01/14 06:21:48;;;;;;;;;2.00;0.25;;;;;;;;4919793;28;45418;-73
2023/01/14 06:24:13;;;;;;;;;2.00;1.00;;;;;;;;4919663;28;45345;-73
2023/01/14 06:26:38;;;;;;;;;2.00;0.00;;;;;;;;4919769;28;45217;-73
2023/01/14 06:29:08;;;;;;;;;0.00;0.00;;;;;;;;4919258;28;47258;-73
2023/01/14 06:31:34;;;;;;;;;2.50;1.00;;;;;;;;4919631;28;45370;-72
2023/01/14 06:34:01;;;;;;;;;1.75;1.00;;;;;;;;4919683;28;45314;-72
2023/01/14 06:36:27;;;;;;;;;1.00;1.00;;;;;;;;4919660;28;45475;-73
2023/01/14 06:38:52;;;;;;;;;0.25;0.00;;;;;;;;4919089;28;45497;-73
2023/01/14 06:41:17;;;;;;;;;2.25;1.00;;;;;;;;4918995;28;45433;-72
2023/01/14 06:43:44;;;;;;;;;1.50;0.50;;;;;;;;4919358;28;45477;-72
2023/01/14 06:46:10;;;;;;;;;0.00;0.00;;;;;;;;4918255;28;45323;-72
2023/01/14 06:48:35;;;;;;;;;1.50;0.25;;;;;;;;4918971;28;45309;-73
2023/01/14 06:51:12;;;;;;;;;3.25;1.00;;;;;;;;4919375;28;45450;-73
2023/01/14 06:53:37;;;;;;;;;1.25;0.25;;;;;;;;4918074;28;45407;-73
2023/01/14 06:56:04;;;;;;;;;3.00;1.00;;;;;;;;4918437;28;45302;-72
2023/01/14 06:58:29;;;;;;;;;3.50;1.00;;;;;;;;4918935;28;46614;-73
2023/01/14 07:00:55;;;;;;;;;3.00;0.50;;;;;;;;4919272;28;45469;-73
2023/01/14 07:03:20;;;;;;;;;2.50;1.50;;;;;;;;4918989;28;45304;-72
2023/01/14 07:05:46;;;;;;;;;0.25;0.25;;;;;;;;4919050;28;45417;-73
2023/01/14 07:08:11;;;;;;;;;2.00;1.00;;;;;;;;4918728;28;46036;-74
2023/01/14 07:10:36;;;;;;;;;1.25;1.25;;;;;;;;4918627;28;45492;-73
2023/01/14 07:13:02;;;;;;;;;2.50;1.75;;;;;;;;4919110;28;45428;-73
2023/01/14 07:15:27;;;;;;;;;4.00;2.00;;;;;;;;4919078;28;45441;-73
2023/01/14 07:17:52;;;;;;;;;5.00;1.50;;;;;;;;4919046;28;45344;-73
2023/01/14 07:20:18;;;;;;;;;0.25;0.25;;;;;;;;4918783;28;45790;-73
2023/01/14 07:22:43;;;;;;;;;3.00;0.75;;;;;;;;4912116;28;45442;-73
2023/01/14 07:25:08;;;;;;;;;2.50;1.00;;;;;;;;4900074;28;45493;-73
2023/01/14 07:27:34;;;;;;;;;1.50;1.50;;;;;;;;4899692;28;47305;-73
2023/01/14 07:29:59;;;;;;;;;1.75;1.00;;;;;;;;4899742;28;45334;-73
2023/01/14 07:32:24;;;;;;;;;1.00;1.00;;;;;;;;4906350;28;45842;-73
2023/01/14 07:34:50;;;;;;;;;0.25;0.25;;;;;;;;4903175;28;45385;-73
2023/01/14 07:37:15;;;;;;;;;0.50;0.25;;;;;;;;4899464;29;46371;-72
2023/01/14 07:39:40;;;;;;;;;2.50;2.50;;;;;;;;4899661;28;45502;-72
2023/01/14 07:42:05;;;;;;;;;0.25;0.25;;;;;;;;4899130;28;45417;-73
2023/01/14 07:44:31;;;;;;;;;0.50;0.50;;;;;;;;4910465;28;45419;-72
2023/01/14 07:46:56;;;;;;;;;1.75;0.00;;;;;;;;4899186;28;45970;-73
2023/01/14 07:49:22;;;;;;;;;2.25;1.00;;;;;;;;4897327;29;45579;-73
2023/01/14 07:51:48;;;;;;;;;2.25;0.00;;;;;;;;4899330;29;45342;-72
2023/01/14 07:54:13;;;;;;;;;1.00;1.00;;;;;;;;4926652;28;45395;-73
2023/01/14 07:56:38;;;;;;;;;2.00;0.50;;;;;;;;4910635;28;45425;-72
2023/01/14 07:59:04;;;;;;;;;0.00;0.00;;;;;;;;4899134;28;45358;-72
2023/01/14 08:01:29;;;;;;;;;0.00;0.00;;;;;;;;4899742;29;45333;-72
2023/01/14 08:03:54;;;;;;;;;0.50;0.50;;;;;;;;4899724;29;45333;-73
2023/01/14 08:06:19;;;;;;;;;1.00;1.00;;;;;;;;4898283;29;46036;-72
2023/01/14 08:08:45;;;;;;;;;1.00;0.00;;;;;;;;4899073;28;45344;-72
2023/01/14 08:11:10;;;;;;;;;0.75;0.75;;;;;;;;4909931;28;45354;-72
2023/01/14 08:13:35;;;;;;;;;0.00;0.00;;;;;;;;4899747;29;45324;-72
2023/01/14 08:16:01;;;;;;;;;0.00;0.00;;;;;;;;4899844;28;45301;-73
2023/01/14 08:18:29;;;;;;;;;0.75;0.75;;;;;;;;4900346;28;45351;-72
2023/01/14 08:20:58;;;;;;;;;1.00;0.00;;;;;;;;4899896;28;45386;-72
2023/01/14 08:23:24;;;;;;;;;3.00;0.25;;;;;;;;4912203;28;45352;-72
2023/01/14 08:25:49;;;;;;;;;0.50;0.50;;;;;;;;4917500;28;45949;-73
2023/01/14 08:28:14;;;;;;;;;0.00;0.00;;;;;;;;4917703;28;45591;-72
2023/01/14 08:30:39;;;;;;;;;0.25;0.00;;;;;;;;4918269;28;45293;-73
2023/01/14 08:33:04;;;;;;;;;2.00;0.00;;;;;;;;4917954;28;45333;-75
2023/01/14 08:35:29;;;;;;;;;0.00;0.00;;;;;;;;4917761;28;45318;-73
2023/01/14 08:37:55;;;;;;;;;1.75;0.00;;;;;;;;4914677;28;45356;-73
2023/01/14 08:40:20;;;;;;;;;0.00;0.00;;;;;;;;4909731;28;45544;-74
2023/01/14 08:42:45;;;;;;;;;0.25;0.25;;;;;;;;4913001;28;45445;-73
2023/01/14 08:45:11;;;;;;;;;0.00;0.00;;;;;;;;4917498;28;46135;-73
2023/01/14 08:47:36;;;;;;;;;0.00;0.00;;;;;;;;4917366;28;45561;-73
2023/01/14 08:50:01;;;;;;;;;1.25;0.00;;;;;;;;4911037;28;45468;-72
2023/01/14 08:52:29;;;;;;;;;0.25;0.00;;;;;;;;4906821;28;45343;-74
2023/01/14 08:54:54;;;;;;;;;0.25;0.25;;;;;;;;4898782;28;45339;-73
2023/01/14 08:57:19;;;;;;;;;0.00;0.00;;;;;;;;4916348;28;45358;-74
2023/01/14 08:59:45;;;;;;;;;0.00;0.00;;;;;;;;4915512;28;45583;-75
2023/01/14 09:02:14;;;;;;;;;1.00;0.00;;;;;;;;4908385;28;45568;-74
2023/01/14 09:04:40;;;;;;;;;0.00;0.00;;;;;;;;4897939;28;45450;-74
2023/01/14 09:18:02;;;;;;;;;0.00;0.00;;;;;;;;4898946;29;45397;-74
2023/01/14 09:20:32;;;;;;;;;0.00;0.00;;;;;;;;4899708;29;45461;-74
2023/01/14 09:22:57;;;;;;;;;0.00;0.00;;;;;;;;4905029;28;45446;-74
2023/01/14 09:25:23;;;;;;;;;2.75;0.00;;;;;;;;4928233;28;46028;-74
2023/01/14 09:27:48;;;;;;;;;0.00;0.00;;;;;;;;4922996;28;45244;-74
2023/01/14 09:30:13;;;;;;;;;0.00;0.00;;;;;;;;4952118;28;45270;-74
2023/01/14 09:32:39;;;;;;;;;0.00;0.00;;;;;;;;4920433;28;45434;-74
2023/01/14 09:35:04;;;;;;;;;0.00;0.00;;;;;;;;4915588;28;46268;-75
2023/01/14 09:37:30;;;;;;;;;0.00;0.00;;;;;;;;4909799;28;45266;-74
2023/01/14 09:39:55;;;;;;;;;0.00;0.00;;;;;;;;4901608;28;45417;-75
2023/01/14 09:42:20;;;;;;;;;0.00;0.00;;;;;;;;4931979;28;45486;-74
2023/01/14 09:44:45;;;;;;;;;0.00;0.00;;;;;;;;4901246;29;45459;-75
2023/01/14 09:47:12;;;;;;;;;0.00;0.00;;;;;;;;4901391;29;45562;-74
2023/01/14 09:49:39;;;;;;;;;0.50;0.50;;;;;;;;4901310;28;45350;-75
2023/01/14 09:52:25;;;;;;;;;0.00;0.00;;;;;;;;4900448;28;45406;-75
2023/01/14 09:55:02;;;;;;;;;0.00;0.00;;;;;;;;4900274;28;45550;-74
2023/01/14 09:57:30;;;;;;;;;0.00;0.00;;;;;;;;4909272;28;45366;-74
2023/01/14 10:00:11;;;;;;;;;0.50;0.00;;;;;;;;4919906;28;45374;-74
2023/01/14 10:02:36;;;;;;;;;0.75;0.25;;;;;;;;4919612;28;45510;-74
2023/01/14 10:05:01;;;;;;;;;0.25;0.25;;;;;;;;4919768;28;45421;-74
2023/01/14 10:07:27;;;;;;;;;1.00;0.00;;;;;;;;4913458;28;45393;-72
2023/01/14 10:09:54;;;;;;;;;0.75;0.00;;;;;;;;4906403;28;45342;-73
2023/01/14 10:12:31;;;;;;;;;0.00;0.00;;;;;;;;4901023;28;45313;-73
2023/01/14 10:14:59;;;;;;;;;0.00;0.00;;;;;;;;4914720;28;47409;-73
2023/01/14 10:17:28;;;;;;;;;0.00;0.00;;;;;;;;4900262;28;45383;-73
2023/01/14 10:19:53;;;;;;;;;0.00;0.00;;;;;;;;4900616;28;45381;-73
2023/01/14 10:22:27;;;;;;;;;0.75;0.75;;;;;;;;4900747;28;45304;-73
2023/01/14 10:24:53;;;;;;;;;0.00;0.00;;;;;;;;4950619;28;47247;-73
2023/01/14 10:27:18;;;;;;;;;0.75;0.75;;;;;;;;4918542;28;45320;-73
2023/01/14 10:29:45;;;;;;;;;2.75;1.00;;;;;;;;4919298;28;45424;-74
2023/01/14 10:32:12;;;;;;;;;1.00;1.00;;;;;;;;4919374;28;45459;-73
2023/01/14 10:34:38;;;;;;;;;0.00;0.00;;;;;;;;4919273;28;45481;-74
2023/01/14 10:37:03;;;;;;;;;1.00;1.00;;;;;;;;4919447;28;45311;-73
2023/01/14 10:39:28;;;;;;;;;0.00;0.00;;;;;;;;4919767;28;45317;-73
2023/01/14 10:41:54;;;;;;;;;2.00;1.00;;;;;;;;4919706;28;45320;-73
2023/01/14 10:44:22;;;;;;;;;0.00;0.00;;;;;;;;4950335;28;46075;-73
2023/01/14 10:46:48;;;;;;;;;0.00;0.00;;;;;;;;4919722;28;45413;-73
2023/01/14 10:49:22;;;;;;;;;1.75;0.00;;;;;;;;4919290;28;45413;-73
2023/01/14 10:51:49;;;;;;;;;1.00;0.25;;;;;;;;4919697;28;45445;-73
2023/01/14 10:54:19;;;;;;;;;1.00;1.00;;;;;;;;4919276;28;46183;-73
2023/01/14 10:56:49;;;;;;;;;0.00;0.00;;;;;;;;4919428;28;45327;-73
2023/01/14 10:59:28;;;;;;;;;1.50;1.00;;;;;;;;4919724;28;45212;-73
2023/01/14 11:01:54;;;;;;;;;0.75;0.75;;;;;;;;4950154;28;45341;-72
2023/01/14 11:04:22;;;;;;;;;0.00;0.00;;;;;;;;4919053;28;46018;-73
2023/01/14 11:06:47;;;;;;;;;0.75;0.75;;;;;;;;4919836;28;45276;-73
2023/01/14 11:09:21;;;;;;;;;0.75;0.00;;;;;;;;4924944;28;45400;-72
2023/01/14 11:11:46;;;;;;;;;0.75;0.25;;;;;;;;4919763;28;45417;-71
2023/01/14 11:14:19;;;;;;;;;2.00;2.00;;;;;;;;4919110;28;46842;-71
2023/01/14 11:16:44;;;;;;;;;3.00;2.25;;;;;;;;4918210;28;45286;-72
2023/01/14 11:19:15;;;;;;;;;1.00;1.00;;;;;;;;4919823;28;44666;-72
2023/01/14 11:21:42;;;;;;;;;1.50;1.50;;;;;;;;4919829;28;45407;-73
2023/01/14 11:24:22;;;;;;;;;1.00;1.00;;;;;;;;4920818;28;46222;-71
2023/01/14 11:26:47;;;;;;;;;1.00;1.00;;;;;;;;4920494;28;45497;-72
2023/01/14 11:29:18;;;;;;;;;0.00;0.00;;;;;;;;4919932;28;45303;-74
2023/01/14 11:31:45;;;;;;;;;1.00;1.00;;;;;;;;4918655;28;45501;-73
2023/01/14 11:34:29;;;;;;;;;0.75;0.75;;;;;;;;4909674;28;46209;-73
2023/01/14 11:37:02;;;;;;;;;1.00;1.00;;;;;;;;4914335;28;45433;-73
2023/01/14 11:39:27;;;;;;;;;3.00;1.00;;;;;;;;4916242;28;45410;-75
2023/01/14 11:41:52;;;;;;;;;0.50;0.00;;;;;;;;4915928;28;45369;-73
2023/01/14 11:44:22;;;;;;;;;1.00;1.00;;;;;;;;4917060;28;45948;-73
2023/01/14 11:47:08;;;;;;;;;1.00;1.00;;;;;;;;4916562;28;46170;-73
2023/01/14 11:49:33;;;;;;;;;0.50;0.50;;;;;;;;4917260;28;45322;-73
2023/01/14 11:51:59;;;;;;;;;0.00;0.00;;;;;;;;4917813;28;45447;-73
2023/01/14 11:54:29;;;;;;;;;3.25;1.50;;;;;;;;4917604;28;47140;-73
2023/01/14 11:56:54;;;;;;;;;1.00;1.00;;;;;;;;4917603;28;45364;-73
2023/01/14 11:59:26;;;;;;;;;1.00;1.00;;;;;;;;4917683;28;45441;-73
2023/01/14 12:01:54;;;;;;;;;1.00;0.00;;;;;;;;4917949;28;45377;-73
2023/01/14 12:04:24;;;;;;;;;0.75;0.75;;;;;;;;4917276;28;47482;-73
2023/01/14 12:06:53;;;;;;;;;1.00;1.00;;;;;;;;4917205;28;46520;-85
2023/01/14 12:09:22;;;;;;;;;1.50;1.50;;;;;;;;4917353;28;45737;-83
2023/01/14 12:11:47;;;;;;;;;3.00;1.25;;;;;;;;4917787;28;45425;-83
2023/01/14 12:17:05;;;;;;;;;1.00;1.00;;;;;;;;4917779;28;45549;-79
2023/01/14 12:19:39;;;;;;;;;2.00;2.00;;;;;;;;4917779;28;45264;-85
2023/01/14 12:22:19;;;;;;;;;1.00;1.00;;;;;;;;4918570;28;45421;-84
2023/01/14 12:24:57;;;;;;;;;0.00;0.00;;;;;;;;4905712;28;46116;-83
2023/01/14 12:27:44;;;;;;;;;1.00;0.50;;;;;;;;4919209;28;45472;-83
2023/01/14 12:30:15;;;;;;;;;0.00;0.00;;;;;;;;4919258;28;45344;-83
2023/01/14 12:32:46;;;;;;;;;1.25;1.25;;;;;;;;4919524;28;45571;-85
2023/01/14 12:35:14;;;;;;;;;0.50;0.50;;;;;;;;4919221;28;46150;-85
2023/01/14 12:37:48;;;;;;;;;1.00;1.00;;;;;;;;4918287;28;45413;-75
2023/01/14 12:46:09;;;;;;;;;6.50;5.50;;;;;;;;4917720;28;45342;-76
2023/01/14 12:48:35;;;;;;;;;1.00;1.00;;;;;;;;4917865;28;45443;-76
2023/01/14 12:51:26;;;;;;;;;1.00;1.00;;;;;;;;4918938;28;45365;-76
2023/01/14 12:53:51;;;;;;;;;1.50;1.50;;;;;;;;4919658;28;45321;-75
2023/01/14 12:56:19;;;;;;;;;1.00;1.00;;;;;;;;4921019;28;45812;-76
2023/01/14 12:58:52;;;;;;;;;3.75;1.25;;;;;;;;4921455;28;45402;-76
2023/01/14 13:01:21;;;;;;;;;0.75;0.75;;;;;;;;4921482;28;45346;-76
2023/01/14 13:03:49;;;;;;;;;1.50;1.00;;;;;;;;4920739;28;45649;-75
2023/01/14 13:06:17;;;;;;;;;0.00;0.00;;;;;;;;4920708;28;47449;-75
2023/01/14 13:08:48;;;;;;;;;1.00;1.00;;;;;;;;4921084;28;45499;-77
2023/01/14 13:11:17;;;;;;;;;0.00;0.00;;;;;;;;4900776;28;46447;-77
2023/01/14 13:13:49;;;;;;;;;0.00;0.00;;;;;;;;4910672;28;45369;-77
2023/01/14 13:16:33;;;;;;;;;1.00;1.00;;;;;;;;4920281;28;46531;-76
2023/01/14 13:18:59;;;;;;;;;0.50;0.50;;;;;;;;4905127;28;45436;-76
2023/01/14 13:21:43;;;;;;;;;2.00;0.75;;;;;;;;4920634;28;45330;-76
2023/01/14 13:24:27;;;;;;;;;1.00;1.00;;;;;;;;4951236;28;45273;-76
2023/01/14 13:26:54;;;;;;;;;1.00;1.00;;;;;;;;4919739;28;45295;-76
2023/01/14 13:29:22;;;;;;;;;1.00;1.00;;;;;;;;4925430;28;45453;-76
2023/01/14 13:31:47;;;;;;;;;1.00;1.00;;;;;;;;4929611;28;45410;-76
2023/01/14 13:34:18;;;;;;;;;0.00;0.00;;;;;;;;4920151;28;45465;-76
2023/01/14 13:36:45;;;;;;;;;0.50;0.50;;;;;;;;4920150;28;46382;-76
2023/01/14 13:39:11;;;;;;;;;0.75;0.50;;;;;;;;4918968;28;45433;-76
2023/01/14 13:41:50;;;;;;;;;0.50;0.50;;;;;;;;4918465;28;45459;-76
2023/01/14 13:44:21;;;;;;;;;0.00;0.00;;;;;;;;4920322;28;45462;-76
2023/01/14 13:46:51;;;;;;;;;1.50;0.25;;;;;;;;4919723;28;47172;-76
2023/01/14 13:49:29;;;;;;;;;0.50;0.00;;;;;;;;4919911;28;45318;-75
2023/01/14 13:51:59;;;;;;;;;0.00;0.00;;;;;;;;4920340;28;45300;-74
2023/01/14 13:54:27;;;;;;;;;2.25;1.00;;;;;;;;4919542;28;45439;-74
2023/01/14 13:57:06;;;;;;;;;0.25;0.00;;;;;;;;4920288;28;45508;-76
2023/01/14 13:59:33;;;;;;;;;0.00;0.00;;;;;;;;4920697;28;45377;-76
2023/01/14 14:01:59;;;;;;;;;1.00;1.00;;;;;;;;4920686;28;45435;-76
2023/01/14 14:04:43;;;;;;;;;0.00;0.00;;;;;;;;4919464;28;45493;-76
2023/01/14 14:07:08;;;;;;;;;0.00;0.00;;;;;;;;4920198;28;47030;-76
2023/01/14 14:09:35;;;;;;;;;0.00;0.00;;;;;;;;4920141;28;45389;-77
2023/01/14 14:14:03;;;;;;;;;0.00;0.00;;;;;;;;4919475;28;45469;-76
2023/01/14 14:15:05;;;;;;;;;0.00;0.00;;;;;;;;4920899;28;45469;-76
2023/01/14 14:17:37;;;;;;;;;0.00;0.00;;;;;;;;4919137;28;45402;-76
2023/01/14 14:20:03;;;;;;;;;0.00;0.00;;;;;;;;4920354;28;45427;-76
2023/01/14 14:22:37;;;;;;;;;0.00;0.00;;;;;;;;4920470;28;45308;-76
2023/01/14 14:25:07;;;;;;;;;0.50;0.50;;;;;;;;4920375;28;45458;-75
2023/01/14 14:27:36;;;;;;;;;0.00;0.00;;;;;;;;4920763;28;45451;-76
2023/01/14 14:30:10;;;;;;;;;1.00;1.00;;;;;;;;4921373;28;45425;-76
2023/01/14 14:32:38;;;;;;;;;0.00;0.00;;;;;;;;4922301;28;45371;-73
2023/01/14 14:35:17;;;;;;;;;1.00;1.00;;;;;;;;4921410;28;45448;-75
2023/01/14 14:37:47;;;;;;;;;0.00;0.00;;;;;;;;4919390;28;47210;-75
2023/01/14 14:40:17;;;;;;;;;0.00;0.00;;;;;;;;4919319;28;45531;-76
2023/01/14 14:42:43;;;;;;;;;0.00;0.00;;;;;;;;4950333;28;45338;-75
2023/01/14 14:45:24;;;;;;;;;0.00;0.00;;;;;;;;4919075;28;45314;-75
2023/01/14 14:47:49;;;;;;;;;0.00;0.00;;;;;;;;4918186;28;47288;-76
2023/01/14 14:50:24;;;;;;;;;1.00;1.00;;;;;;;;4919234;28;45388;-76
2023/01/14 14:52:50;;;;;;;;;2.00;0.75;;;;;;;;4919317;28;45259;-76
2023/01/14 14:55:17;;;;;;;;;0.00;0.00;;;;;;;;4919263;28;45301;-75
2023/01/14 14:57:42;;;;;;;;;0.00;0.00;;;;;;;;4919138;28;45942;-76
2023/01/14 15:00:11;;;;;;;;;0.00;0.00;;;;;;;;4918078;28;45196;-76
2023/01/14 15:02:41;;;;;;;;;0.00;0.00;;;;;;;;4918353;28;45424;-74
2023/01/14 15:05:07;;;;;;;;;1.00;1.00;;;;;;;;4919227;28;45350;-75
2023/01/14 15:07:36;;;;;;;;;0.00;0.00;;;;;;;;4918417;28;45863;-76
2023/01/14 15:10:01;;;;;;;;;7.25;6.25;;;;;;;;4918912;28;45479;-75
2023/01/14 15:12:26;;;;;;;;;3.00;2.25;;;;;;;;4918548;28;45468;-76
2023/01/14 15:14:59;;;;;;;;;0.00;0.00;;;;;;;;4918336;28;45397;-75
2023/01/14 15:17:25;;;;;;;;;3.00;3.00;;;;;;;;4918042;28;45404;-75
2023/01/14 15:19:51;;;;;;;;;3.00;3.00;;;;;;;;4918424;28;45315;-76
2023/01/14 15:22:19;;;;;;;;;1.00;1.00;;;;;;;;4918394;28;45425;-75